Nearby METAR Reports

 

KGRB - Ashwaubenon, Wisconsin, USA
Distance from station: NW 5mi, 8km
Updated: Tue, 19-Oct-2021 10:53am CDT
Clear
Clear
 Wind from S
Wind: S 8 mph , 13 km/h
Temperature: 64°F , 18°C
Dew Point: 48°F , 9°C
Humidity: 56%
Barometer: 30.04 inHg , 1017.3 hPa
Clouds: Clear
Visibility: 8 miles , 13 km
2021/10/19 15:53 KGRB 191553Z 19007KT 8SM CLR 18/09 A3004 RMK AO2 SLP173 T01830089
KATW - Appleton/Outagam, Wisconsin, USA
Distance from station: WSW 26mi, 42km
Updated: Tue, 19-Oct-2021 10:45am CDT
Partly cloudy
Partly cloudy
 Wind from SSW
Wind: SSW 8 mph , 13 km/h
Temperature: 64°F , 18°C
Dew Point: 46°F , 8°C
Humidity: 52%
Barometer: 30.04 inHg , 1017.3 hPa
Clouds: Partly cloudy
Visibility: 10 miles , 16 km
Cloud details: Partly cloudy 12000 ft
2021/10/19 15:45 KATW 191545Z 21007KT 10SM SCT120 18/08 A3004
 
KMTW - Manitowac Muni, Wisconsin, USA
Distance from station: SE 29mi, 47km
Updated: Tue, 19-Oct-2021 10:56am CDT
Clear
Clear
 Wind from W
Wind: W 7 mph , 11 km/h
Temperature: 68°F , 20°C
Dew Point: 48°F , 9°C
Humidity: 49%
Barometer: 30.06 inHg , 1017.9 hPa
Clouds: Clear
Visibility: 10 miles , 16 km
2021/10/19 15:56 KMTW 191556Z AUTO 26006KT 10SM CLR 20/09 A3006 RMK AO2 SLP179 T02000094
KOCQ - Oconto, Wisconsin, USA
Distance from station: NNE 30mi, 49km
Updated: Tue, 19-Oct-2021 10:55am CDT
Clear
Clear
 Wind from SW
Wind: SW 6 mph , 9 km/h
Temperature: 66°F , 19°C
Dew Point: 48°F , 9°C
Humidity: 52%
Barometer: 30.03 inHg , 1016.9 hPa
Clouds: Clear
Visibility: 10 miles , 16 km
2021/10/19 15:55 KOCQ 191555Z AUTO 22005KT 10SM CLR 19/09 A3003 RMK AO1 T01870085
 
KEZS - Shawano Muni, Wisconsin, USA
Distance from station: NW 35mi, 56km
Updated: Tue, 19-Oct-2021 10:55am CDT
Clear
Clear
 Wind from calm
Wind: Calm
Temperature: 63°F , 17°C
Dew Point: 50°F , 10°C
Humidity: 64%
Barometer: 30.03 inHg , 1016.9 hPa
Clouds: Clear
Visibility: 10 miles , 16 km
2021/10/19 15:55 KEZS 191555Z AUTO 00000KT 10SM CLR 17/10 A3003 RMK AO2 T01710095
KCLI - Clintonville, Wisconsin, USA
Distance from station: WNW 36mi, 58km
Updated: Fri, 27-Aug-2021 6:55pm CDT
NOT Current
Heavy rain, Overcast
Heavy rain, Overcast
 Wind from WNW
Wind: WNW 3 mph , 6 km/h
Temperature: 73°F , 23°C
Dew Point: 70°F , 21°C
Humidity: 89%
Barometer: 30.02 inHg , 1016.6 hPa
Summary: Heavy rain
Clouds: Overcast
Visibility: 1 1/2 miles , 2.4 km
Cloud details: Partly cloudy 1300 ft
Overcast 2300 ft
2021/08/27 23:55 KCLI 272355Z AUTO 30003KT 1 1/2SM +RA SCT013 OVC023 23/21 A3002 RMK AO2 P0001 6//// T02260208
 
KOSH - Oshkosh, Wisconsin, USA
Distance from station: SW 41mi, 66km
Updated: Tue, 19-Oct-2021 10:53am CDT
Clear
Clear
 Wind from SSW
Wind: SSW 9 mph , 15 km/h
Temperature: 66°F , 19°C
Dew Point: 48°F , 9°C
Humidity: 52%
Barometer: 30.05 inHg , 1017.6 hPa
Clouds: Clear
Visibility: 10 miles , 16 km
2021/10/19 15:53 KOSH 191553Z 21008KT 10SM CLR 19/09 A3005 RMK AO2 SLP172 T01890094
KSUE - Sturgeon Bay, Wisconsin, USA
Distance from station: NE 42mi, 68km
Updated: Tue, 19-Oct-2021 10:56am CDT
Clear
Clear
 Wind from SW
Wind: SW 9 mph , 15 km/h
Temperature: 66°F , 19°C
Dew Point: 48°F , 9°C
Humidity: 52%
Barometer: 30.03 inHg , 1016.9 hPa
Clouds: Clear
Visibility: 10 miles , 16 km
2021/10/19 15:56 KSUE 191556Z AUTO 22008KT 10SM CLR 19/09 A3003 RMK AO2 SLP170 T01890089 $
 
KSBM - Sheboygan, Wisconsin, USA
Distance from station: SSE 46mi, 75km
Updated: Tue, 19-Oct-2021 10:53am CDT
Clear
Clear
 Wind from varies
Wind: varies 3 mph , 6 km/h
Temperature: 68°F , 20°C
Dew Point: 52°F , 11°C
Humidity: 56%
Barometer: 30.06 inHg , 1017.9 hPa
Clouds: Clear
Visibility: 10 miles , 16 km
2021/10/19 15:53 KSBM 191553Z AUTO VRB03KT 10SM CLR 20/11 A3006 RMK AO2 SLP181 T02000106
KPCZ - Waupaca, Wisconsin, USA
Distance from station: W 48mi, 77km
Updated: Tue, 19-Oct-2021 10:55am CDT
Clear
Clear
 Wind from S
Wind: S 7 mph , 11 km/h
Temperature: 64°F , 18°C
Dew Point: 48°F , 9°C
Humidity: 56%
Barometer: 30.05 inHg , 1017.6 hPa
Clouds: Clear
Visibility: 10 miles , 16 km
2021/10/19 15:55 KPCZ 191555Z AUTO 18006KT 10SM CLR 18/09 A3005 RMK AO2 T01800088